Snook, Texas
Current Conditions -  °F | °C
As of 9:53 PM on Saturday 25 Oct 2014 (Local Time) from KCLL Reporting Station
Clear Clear  
Wind Chill: 71°   Ceiling: Unl
Heat Index: 71°   Visibility: 10mi
Dew Point: 61°   Wind: 3mph
Humidity: 70%   Direction: 160°SSE
Pressure: 30.1"   Gusts: NA
Location:  30.49°N, 96.46°W
Report Text: KCLL 260253Z 16003KT 10SM CLR 22/16 A3010 RMK AO2 SLP187 T02170161 52005
Loading
Personal Weather Stations






























Interactive Weather Map
Tropical Storm Tracking
New forecast layout! Learn more

10-Day Weather Forecast

Advertisements
Track Severe Weather on mobile